Time,TemperatureF,DewpointF,PressureIn,WindDirection,WindDirectionDegrees,WindSpeedMPH,WindSpeedGustMPH,Humidity,HourlyPrecipIn,Conditions,Clouds,dailyrainin,SolarRadiationWatts/m^2,SoftwareType,DateUTC
2013-06-20 00:06:00,55.7,22.2,29.56,WSW,243,7.0,10.0,27,0.00,,,0.00,0,Wunderground v.1.15,2013-06-20 06:06:00,
2013-06-20 00:13:00,55.1,22.5,29.56,WSW,252,9.0,9.0,28,0.00,,,0.00,0,Wunderground v.1.15,2013-06-20 06:13:00,
2013-06-20 00:19:00,54.4,21.9,29.56,WSW,252,7.0,10.0,28,0.00,,,0.00,0,Wunderground v.1.15,2013-06-20 06:19:00,
2013-06-20 00:26:00,53.6,21.2,29.56,WSW,252,9.0,10.0,28,0.00,,,0.00,0,Wunderground v.1.15,2013-06-20 06:26:00,
2013-06-20 00:33:00,52.9,20.6,29.56,WSW,252,10.0,10.0,28,0.00,,,0.00,0,Wunderground v.1.15,2013-06-20 06:33:00,
2013-06-20 00:39:00,52.3,21.7,29.56,WSW,252,9.0,10.0,30,0.00,,,0.00,0,Wunderground v.1.15,2013-06-20 06:39:00,
2013-06-20 00:46:00,51.7,19.6,29.56,WSW,252,7.0,9.0,28,0.00,,,0.00,0,Wunderground v.1.15,2013-06-20 06:46:00,
2013-06-20 00:51:00,51.3,20.1,29.56,WSW,252,10.0,10.0,29,0.00,,,0.00,0,Wunderground v.1.15,2013-06-20 06:51:00,
2013-06-20 00:57:00,51.0,20.6,29.56,WSW,252,9.0,10.0,30,0.00,,,0.00,0,Wunderground v.1.15,2013-06-20 06:57:00,
2013-06-20 01:03:00,50.5,20.2,29.56,WSW,252,9.0,10.0,30,0.00,,,0.00,0,Wunderground v.1.15,2013-06-20 07:03:00,
2013-06-20 01:09:00,50.2,22.9,29.56,WSW,252,10.0,10.0,34,0.00,,,0.00,0,Wunderground v.1.15,2013-06-20 07:09:00,
2013-06-20 01:14:00,49.9,24.0,29.55,WSW,252,9.0,10.0,36,0.00,,,0.00,0,Wunderground v.1.15,2013-06-20 07:14:00,
2013-06-20 01:19:00,49.5,24.3,29.55,WSW,252,9.0,10.0,37,0.00,,,0.00,0,Wunderground v.1.15,2013-06-20 07:19:00,
2013-06-20 01:26:00,48.9,24.4,29.55,WSW,252,10.0,10.0,38,0.00,,,0.00,0,Wunderground v.1.15,2013-06-20 07:26:00,
2013-06-20 01:31:00,48.5,25.2,29.56,WSW,252,11.0,11.0,40,0.00,,,0.00,0,Wunderground v.1.15,2013-06-20 07:31:00,
2013-06-20 01:36:00,48.0,24.2,29.56,WSW,252,10.0,11.0,39,0.00,,,0.00,0,Wunderground v.1.15,2013-06-20 07:36:00,
2013-06-20 01:43:00,47.3,24.8,29.56,WSW,254,10.0,11.0,41,0.00,,,0.00,0,Wunderground v.1.15,2013-06-20 07:43:00,
2013-06-20 01:49:00,46.7,24.2,29.56,WSW,257,11.0,12.0,41,0.00,,,0.00,0,Wunderground v.1.15,2013-06-20 07:49:00,
2013-06-20 01:54:00,46.1,23.1,29.56,West,261,12.0,12.0,40,0.00,,,0.00,0,Wunderground v.1.15,2013-06-20 07:54:00,
2013-06-20 02:00:00,45.7,22.7,29.55,West,261,11.0,12.0,40,0.00,,,0.00,0,Wunderground v.1.15,2013-06-20 08:00:00,
2013-06-20 02:05:00,45.4,23.6,29.55,West,263,13.0,14.0,42,0.00,,,0.00,0,Wunderground v.1.15,2013-06-20 08:05:00,
2013-06-20 02:10:00,45.1,22.8,29.55,West,265,14.0,14.0,41,0.00,,,0.00,0,Wunderground v.1.15,2013-06-20 08:10:00,
2013-06-20 02:15:00,44.9,22.6,29.55,West,267,14.0,14.0,41,0.00,,,0.00,0,Wunderground v.1.15,2013-06-20 08:15:00,
2013-06-20 02:20:00,44.9,22.6,29.55,West,267,13.0,13.0,41,0.00,,,0.00,0,Wunderground v.1.15,2013-06-20 08:20:00,
2013-06-20 02:25:00,44.8,21.3,29.55,West,268,14.0,15.0,39,0.00,,,0.00,0,Wunderground v.1.15,2013-06-20 08:25:00,
2013-06-20 02:30:00,44.8,20.1,29.55,West,269,13.0,14.0,37,0.00,,,0.00,0,Wunderground v.1.15,2013-06-20 08:30:00,
2013-06-20 02:36:00,44.9,18.9,29.55,West,269,14.0,15.0,35,0.00,,,0.00,0,Wunderground v.1.15,2013-06-20 08:36:00,
2013-06-20 02:41:00,45.1,18.4,29.55,West,269,10.0,14.0,34,0.00,,,0.00,0,Wunderground v.1.15,2013-06-20 08:41:00,
2013-06-20 02:46:00,45.2,19.1,29.55,West,269,13.0,15.0,35,0.00,,,0.00,0,Wunderground v.1.15,2013-06-20 08:46:00,
2013-06-20 02:51:00,45.5,19.4,29.55,West,269,11.0,13.0,35,0.00,,,0.00,0,Wunderground v.1.15,2013-06-20 08:51:00,
2013-06-20 02:56:00,45.7,19.6,29.55,West,269,13.0,13.0,35,0.00,,,0.00,0,Wunderground v.1.15,2013-06-20 08:56:00,
2013-06-20 03:01:00,45.7,19.6,29.56,West,269,11.0,13.0,35,0.00,,,0.00,0,Wunderground v.1.15,2013-06-20 09:01:00,
2013-06-20 03:06:00,45.8,20.3,29.56,West,269,13.0,13.0,36,0.00,,,0.00,0,Wunderground v.1.15,2013-06-20 09:06:00,
2013-06-20 03:11:00,45.8,21.0,29.56,West,269,12.0,12.0,37,0.00,,,0.00,0,Wunderground v.1.15,2013-06-20 09:11:00,
2013-06-20 03:17:00,45.8,21.6,29.56,West,269,9.0,12.0,38,0.00,,,0.00,0,Wunderground v.1.15,2013-06-20 09:17:00,
2013-06-20 03:22:00,45.8,21.6,29.56,West,269,9.0,12.0,38,0.00,,,0.00,0,Wunderground v.1.15,2013-06-20 09:22:00,
2013-06-20 03:27:00,45.8,20.3,29.56,West,269,12.0,14.0,36,0.00,,,0.00,0,Wunderground v.1.15,2013-06-20 09:27:00,
2013-06-20 03:32:00,45.8,22.2,29.56,West,269,11.0,12.0,39,0.00,,,0.00,0,Wunderground v.1.15,2013-06-20 09:32:00,
2013-06-20 03:37:00,45.7,21.5,29.56,West,269,12.0,13.0,38,0.00,,,0.00,0,Wunderground v.1.15,2013-06-20 09:37:00,
2013-06-20 03:42:00,45.5,21.9,29.56,West,269,11.0,12.0,39,0.00,,,0.00,0,Wunderground v.1.15,2013-06-20 09:42:00,
2013-06-20 03:47:00,45.4,23.0,29.56,West,269,9.0,12.0,41,0.00,,,0.00,0,Wunderground v.1.15,2013-06-20 09:47:00,
2013-06-20 03:53:00,45.2,20.4,29.56,West,269,10.0,11.0,37,0.00,,,0.00,0,Wunderground v.1.15,2013-06-20 09:53:00,
2013-06-20 03:58:00,45.1,19.0,29.56,West,269,6.0,11.0,35,0.00,,,0.00,0,Wunderground v.1.15,2013-06-20 09:58:00,
2013-06-20 04:03:00,44.9,17.5,29.57,West,269,0.0,8.0,33,0.00,,,0.00,0,Wunderground v.1.15,2013-06-20 10:03:00,
2013-06-20 04:08:00,44.8,19.4,29.57,West,269,4.0,8.0,36,0.00,,,0.00,0,Wunderground v.1.15,2013-06-20 10:08:00,
2013-06-20 04:13:00,44.9,18.9,29.57,West,269,0.0,3.0,35,0.00,,,0.00,0,Wunderground v.1.15,2013-06-20 10:13:00,
2013-06-20 04:18:00,44.9,19.5,29.58,West,269,0.0,3.0,36,0.00,,,0.00,0,Wunderground v.1.15,2013-06-20 10:18:00,
2013-06-20 04:23:00,44.9,20.2,29.58,West,269,0.0,0.0,37,0.00,,,0.00,0,Wunderground v.1.15,2013-06-20 10:23:00,
2013-06-20 04:28:00,44.9,22.0,29.58,West,269,0.0,0.0,40,0.00,,,0.00,0,Wunderground v.1.15,2013-06-20 10:28:00,
2013-06-20 04:33:00,44.8,20.7,29.58,West,269,0.0,0.0,38,0.00,,,0.00,0,Wunderground v.1.15,2013-06-20 10:33:00,
2013-06-20 04:38:00,44.6,21.1,29.58,West,269,0.0,0.0,39,0.00,,,0.00,0,Wunderground v.1.15,2013-06-20 10:38:00,
2013-06-20 04:43:00,44.5,21.6,29.58,West,269,0.0,0.0,40,0.00,,,0.00,0,Wunderground v.1.15,2013-06-20 10:43:00,
2013-06-20 04:48:00,44.5,22.2,29.57,West,269,0.0,0.0,41,0.00,,,0.00,0,Wunderground v.1.15,2013-06-20 10:48:00,
2013-06-20 04:53:00,44.5,22.2,29.57,West,269,9.0,9.0,41,0.00,,,0.00,0,Wunderground v.1.15,2013-06-20 10:53:00,
2013-06-20 04:58:00,44.3,22.6,29.57,West,269,4.0,9.0,42,0.00,,,0.00,0,Wunderground v.1.15,2013-06-20 10:58:00,
2013-06-20 05:04:00,44.3,22.1,29.57,West,269,4.0,8.0,41,0.00,,,0.00,0,Wunderground v.1.15,2013-06-20 11:04:00,
2013-06-20 05:09:00,44.3,23.7,29.57,West,269,4.0,8.0,44,0.00,,,0.00,0,Wunderground v.1.15,2013-06-20 11:09:00,
2013-06-20 05:14:00,44.3,23.7,29.57,West,269,5.0,7.0,44,0.00,,,0.00,0,Wunderground v.1.15,2013-06-20 11:14:00,
2013-06-20 05:19:00,44.2,23.6,29.58,West,269,4.0,8.0,44,0.00,,,0.00,0,Wunderground v.1.15,2013-06-20 11:19:00,
2013-06-20 05:24:00,44.2,23.6,29.58,West,269,6.0,8.0,44,0.00,,,0.00,0,Wunderground v.1.15,2013-06-20 11:24:00,
2013-06-20 05:29:00,44.1,24.6,29.58,West,269,7.0,9.0,46,0.00,,,0.00,0,Wunderground v.1.15,2013-06-20 11:29:00,
2013-06-20 05:34:00,43.8,23.8,29.59,West,269,8.0,8.0,45,0.00,,,0.00,0,Wunderground v.1.15,2013-06-20 11:34:00,
2013-06-20 05:39:00,43.5,22.5,29.59,West,269,8.0,10.0,43,0.00,,,0.00,0,Wunderground v.1.15,2013-06-20 11:39:00,
2013-06-20 05:44:00,43.3,22.8,29.59,West,269,6.0,10.0,44,0.00,,,0.00,0,Wunderground v.1.15,2013-06-20 11:44:00,
2013-06-20 05:49:00,43.3,23.4,29.59,West,269,8.0,10.0,45,0.00,,,0.00,5,Wunderground v.1.15,2013-06-20 11:49:00,
2013-06-20 05:54:00,43.2,23.3,29.59,West,269,9.0,9.0,45,0.00,,,0.00,7,Wunderground v.1.15,2013-06-20 11:54:00,
2013-06-20 05:59:00,43.1,23.7,29.60,West,269,4.0,9.0,46,0.00,,,0.00,7,Wunderground v.1.15,2013-06-20 11:59:00,
2013-06-20 06:04:00,42.9,24.5,29.60,West,269,0.0,7.0,48,0.00,,,0.00,9,Wunderground v.1.15,2013-06-20 12:04:00,
2013-06-20 06:09:00,42.8,22.4,29.60,West,269,0.0,7.0,44,0.00,,,0.00,11,Wunderground v.1.15,2013-06-20 12:09:00,
2013-06-20 06:14:00,42.6,22.2,29.61,West,269,0.0,2.0,44,0.00,,,0.00,12,Wunderground v.1.15,2013-06-20 12:14:00,
2013-06-20 06:19:00,42.6,22.7,29.61,West,269,0.0,2.0,45,0.00,,,0.00,16,Wunderground v.1.15,2013-06-20 12:19:00,
2013-06-20 06:24:00,42.5,23.7,29.61,West,269,0.0,0.0,47,0.00,,,0.00,18,Wunderground v.1.15,2013-06-20 12:24:00,
2013-06-20 06:29:00,42.3,22.4,29.61,West,269,5.0,9.0,45,0.00,,,0.00,23,Wunderground v.1.15,2013-06-20 12:29:00,
2013-06-20 06:34:00,42.2,22.9,29.61,West,269,3.0,8.0,46,0.00,,,0.00,28,Wunderground v.1.15,2013-06-20 12:34:00,
2013-06-20 06:39:00,42.3,24.0,29.61,West,269,5.0,8.0,48,0.00,,,0.00,37,Wunderground v.1.15,2013-06-20 12:39:00,
2013-06-20 06:44:00,42.3,23.0,29.61,West,269,6.0,7.0,46,0.00,,,0.00,81,Wunderground v.1.15,2013-06-20 12:44:00,
2013-06-20 06:49:00,42.6,22.7,29.61,West,269,3.0,7.0,45,0.00,,,0.00,146,Wunderground v.1.15,2013-06-20 12:49:00,
2013-06-20 06:55:00,42.9,24.0,29.61,West,269,4.0,5.0,47,0.00,,,0.00,158,Wunderground v.1.15,2013-06-20 12:55:00,
2013-06-20 07:00:00,43.3,24.4,29.62,West,269,6.0,6.0,47,0.00,,,0.00,171,Wunderground v.1.15,2013-06-20 13:00:00,
2013-06-20 07:05:00,43.9,25.5,29.62,West,269,10.0,10.0,48,0.00,,,0.00,188,Wunderground v.1.15,2013-06-20 13:05:00,
2013-06-20 07:10:00,44.6,25.6,29.62,West,269,0.0,4.0,47,0.00,,,0.00,199,Wunderground v.1.15,2013-06-20 13:10:00,
2013-06-20 07:15:00,45.4,25.8,29.63,West,269,0.0,4.0,46,0.00,,,0.00,213,Wunderground v.1.15,2013-06-20 13:15:00,
2013-06-20 07:20:00,46.2,27.1,29.63,West,269,0.0,0.0,47,0.00,,,0.00,232,Wunderground v.1.15,2013-06-20 13:20:00,
2013-06-20 07:25:00,46.8,27.1,29.63,West,269,0.0,0.0,46,0.00,,,0.00,248,Wunderground v.1.15,2013-06-20 13:25:00,
2013-06-20 07:30:00,47.6,26.7,29.63,West,269,0.0,0.0,44,0.00,,,0.00,255,Wunderground v.1.15,2013-06-20 13:30:00,
2013-06-20 07:36:00,48.5,28.1,29.63,West,269,0.0,0.0,45,0.00,,,0.00,283,Wunderground v.1.15,2013-06-20 13:36:00,
2013-06-20 07:41:00,49.2,28.7,29.63,West,277,0.0,2.0,45,0.00,,,0.00,288,Wunderground v.1.15,2013-06-20 13:41:00,
2013-06-20 07:46:00,49.8,27.6,29.64,West,277,0.0,2.0,42,0.00,,,0.00,308,Wunderground v.1.15,2013-06-20 13:46:00,
2013-06-20 07:51:00,50.5,27.7,29.64,West,277,0.0,0.0,41,0.00,,,0.00,329,Wunderground v.1.15,2013-06-20 13:51:00,
2013-06-20 07:57:00,51.3,28.4,29.64,West,277,0.0,0.0,41,0.00,,,0.00,345,Wunderground v.1.15,2013-06-20 13:57:00,
2013-06-20 08:02:00,51.9,24.4,29.64,West,277,0.0,0.0,34,0.00,,,0.00,360,Wunderground v.1.15,2013-06-20 14:02:00,
2013-06-20 08:07:00,52.6,25.0,29.64,West,277,0.0,0.0,34,0.00,,,0.00,374,Wunderground v.1.15,2013-06-20 14:07:00,
2013-06-20 08:12:00,53.5,26.5,29.64,West,277,0.0,0.0,35,0.00,,,0.00,394,Wunderground v.1.15,2013-06-20 14:12:00,
2013-06-20 08:17:00,54.4,27.3,29.65,West,277,0.0,0.0,35,0.00,,,0.00,404,Wunderground v.1.15,2013-06-20 14:17:00,
2013-06-20 08:22:00,55.3,25.9,29.65,West,277,0.0,0.0,32,0.00,,,0.00,427,Wunderground v.1.15,2013-06-20 14:22:00,
2013-06-20 08:27:00,56.3,26.8,29.65,West,277,0.0,0.0,32,0.00,,,0.00,445,Wunderground v.1.15,2013-06-20 14:27:00,
2013-06-20 08:32:00,57.0,25.0,29.65,West,277,0.0,0.0,29,0.00,,,0.00,464,Wunderground v.1.15,2013-06-20 14:32:00,
2013-06-20 08:37:00,58.0,29.8,29.65,West,277,0.0,0.0,34,0.00,,,0.00,482,Wunderground v.1.15,2013-06-20 14:37:00,
2013-06-20 08:42:00,58.9,25.8,29.65,West,277,0.0,0.0,28,0.00,,,0.00,499,Wunderground v.1.15,2013-06-20 14:42:00,
2013-06-20 08:47:00,59.9,28.4,29.65,West,277,0.0,0.0,30,0.00,,,0.00,512,Wunderground v.1.15,2013-06-20 14:47:00,
2013-06-20 08:52:00,61.0,30.1,29.65,West,277,0.0,0.0,31,0.00,,,0.00,527,Wunderground v.1.15,2013-06-20 14:52:00,
2013-06-20 08:57:00,62.0,31.8,29.65,West,277,0.0,0.0,32,0.00,,,0.00,543,Wunderground v.1.15,2013-06-20 14:57:00,
2013-06-20 09:03:00,63.1,31.1,29.64,West,277,0.0,0.0,30,0.00,,,0.00,563,Wunderground v.1.15,2013-06-20 15:03:00,
2013-06-20 09:08:00,63.5,28.0,29.64,West,277,0.0,0.0,26,0.00,,,0.00,578,Wunderground v.1.15,2013-06-20 15:08:00,
2013-06-20 09:14:00,64.5,30.6,29.64,West,277,0.0,0.0,28,0.00,,,0.00,598,Wunderground v.1.15,2013-06-20 15:14:00,
2013-06-20 09:18:00,65.3,30.4,29.64,West,274,3.0,8.0,27,0.00,,,0.00,613,Wunderground v.1.15,2013-06-20 15:18:00,
2013-06-20 09:24:00,65.8,29.9,29.64,West,274,0.0,4.0,26,0.00,,,0.00,629,Wunderground v.1.15,2013-06-20 15:24:00,
2013-06-20 09:29:00,66.3,32.2,29.64,West,274,0.0,4.0,28,0.00,,,0.00,640,Wunderground v.1.15,2013-06-20 15:29:00,
2013-06-20 09:33:00,66.8,31.7,29.64,West,274,0.0,3.0,27,0.00,,,0.00,656,Wunderground v.1.15,2013-06-20 15:33:00,
2013-06-20 09:38:00,67.4,30.3,29.64,West,274,0.0,3.0,25,0.00,,,0.00,671,Wunderground v.1.15,2013-06-20 15:38:00,
2013-06-20 09:43:00,67.9,30.8,29.64,West,274,0.0,0.0,25,0.00,,,0.00,686,Wunderground v.1.15,2013-06-20 15:43:00,
2013-06-20 09:48:00,68.6,31.3,29.63,West,272,0.0,6.0,25,0.00,,,0.00,701,Wunderground v.1.15,2013-06-20 15:48:00,
2013-06-20 09:53:00,69.3,28.8,29.63,West,271,5.0,10.0,22,0.00,,,0.00,714,Wunderground v.1.15,2013-06-20 15:53:00,
2013-06-20 09:58:00,69.9,31.4,29.63,West,271,0.0,10.0,24,0.00,,,0.00,724,Wunderground v.1.15,2013-06-20 15:58:00,
2013-06-20 10:03:00,70.6,32.0,29.63,West,271,8.0,9.0,24,0.00,,,0.00,738,Wunderground v.1.15,2013-06-20 16:03:00,
2013-06-20 10:08:00,71.3,32.6,29.63,West,270,7.0,11.0,24,0.00,,,0.00,752,Wunderground v.1.15,2013-06-20 16:08:00,
2013-06-20 10:14:00,71.8,29.7,29.63,West,270,3.0,6.0,21,0.00,,,0.00,766,Wunderground v.1.15,2013-06-20 16:14:00,
2013-06-20 10:19:00,72.3,29.0,29.63,West,270,3.0,9.0,20,0.00,,,0.00,779,Wunderground v.1.15,2013-06-20 16:19:00,
2013-06-20 10:24:00,72.8,32.8,29.63,West,270,0.0,8.0,23,0.00,,,0.00,791,Wunderground v.1.15,2013-06-20 16:24:00,
2013-06-20 10:29:00,73.3,32.1,29.63,West,270,0.0,8.0,22,0.00,,,0.00,805,Wunderground v.1.15,2013-06-20 16:29:00,
2013-06-20 10:34:00,73.9,27.7,29.63,West,270,1.0,2.0,18,0.00,,,0.00,817,Wunderground v.1.15,2013-06-20 16:34:00,
2013-06-20 10:39:00,74.6,30.9,29.63,West,270,0.0,8.0,20,0.00,,,0.00,826,Wunderground v.1.15,2013-06-20 16:39:00,
2013-06-20 10:44:00,75.1,27.3,29.63,West,263,7.0,10.0,17,0.00,,,0.00,840,Wunderground v.1.15,2013-06-20 16:44:00,
2013-06-20 10:49:00,75.6,27.7,29.63,SSW,192,1.0,12.0,17,0.00,,,0.00,849,Wunderground v.1.15,2013-06-20 16:49:00,
2013-06-20 10:54:00,76.0,28.0,29.63,South,187,7.0,10.0,17,0.00,,,0.00,856,Wunderground v.1.15,2013-06-20 16:54:00,
2013-06-20 10:59:00,76.5,26.9,29.63,SSE,150,6.0,16.0,16,0.00,,,0.00,870,Wunderground v.1.15,2013-06-20 16:59:00,
2013-06-20 11:04:00,76.8,25.6,29.63,SSE,153,15.0,20.0,15,0.00,,,0.00,879,Wunderground v.1.15,2013-06-20 17:04:00,
2013-06-20 11:09:00,77.2,24.3,29.63,SSE,152,4.0,20.0,14,0.00,,,0.00,889,Wunderground v.1.15,2013-06-20 17:09:00,
2013-06-20 11:14:00,77.6,24.6,29.63,SSE,151,9.0,17.0,14,0.00,,,0.00,900,Wunderground v.1.15,2013-06-20 17:14:00,
2013-06-20 11:19:00,77.7,22.9,29.63,SE,137,5.0,17.0,13,0.00,,,0.00,909,Wunderground v.1.15,2013-06-20 17:19:00,
2013-06-20 11:24:00,78.1,23.2,29.63,SE,135,10.0,14.0,13,0.00,,,0.00,918,Wunderground v.1.15,2013-06-20 17:24:00,
2013-06-20 11:29:00,78.5,23.5,29.62,SE,146,14.0,18.0,13,0.00,,,0.00,925,Wunderground v.1.15,2013-06-20 17:29:00,
2013-06-20 11:34:00,78.6,23.6,29.62,SE,145,7.0,12.0,13,0.00,,,0.00,930,Wunderground v.1.15,2013-06-20 17:34:00,
2013-06-20 11:39:00,78.6,21.7,29.62,SE,146,0.0,12.0,12,0.00,,,0.00,935,Wunderground v.1.15,2013-06-20 17:39:00,
2013-06-20 11:44:00,78.8,23.8,29.62,SE,146,0.0,7.0,13,0.00,,,0.00,944,Wunderground v.1.15,2013-06-20 17:44:00,
2013-06-20 11:49:00,79.2,24.1,29.62,SSE,147,10.0,13.0,13,0.00,,,0.00,902,Wunderground v.1.15,2013-06-20 17:49:00,
2013-06-20 11:54:00,79.6,24.4,29.62,SSE,147,7.0,9.0,13,0.00,,,0.00,962,Wunderground v.1.15,2013-06-20 17:54:00,
2013-06-20 11:59:00,79.9,24.6,29.61,SSE,147,4.0,10.0,13,0.00,,,0.00,967,Wunderground v.1.15,2013-06-20 17:59:00,
2013-06-20 12:04:00,80.5,23.2,29.61,SSE,148,0.0,7.0,12,0.00,,,0.00,979,Wunderground v.1.15,2013-06-20 18:04:00,
2013-06-20 12:09:00,80.5,21.1,29.61,SSE,147,0.0,10.0,11,0.00,,,0.00,983,Wunderground v.1.15,2013-06-20 18:09:00,
2013-06-20 12:14:00,80.5,21.1,29.60,SSE,148,0.0,2.0,11,0.00,,,0.00,984,Wunderground v.1.15,2013-06-20 18:14:00,
2013-06-20 12:19:00,80.7,23.3,29.60,SSE,148,8.0,11.0,12,0.00,,,0.00,983,Wunderground v.1.15,2013-06-20 18:19:00,
2013-06-20 12:24:00,81.1,27.4,29.60,SSE,148,0.0,5.0,14,0.00,,,0.00,991,Wunderground v.1.15,2013-06-20 18:24:00,
2013-06-20 12:29:00,81.4,25.8,29.60,SSE,148,4.0,8.0,13,0.00,,,0.00,995,Wunderground v.1.15,2013-06-20 18:29:00,
2013-06-20 12:34:00,81.6,24.0,29.60,SSE,148,5.0,10.0,12,0.00,,,0.00,1004,Wunderground v.1.15,2013-06-20 18:34:00,
2013-06-20 12:39:00,81.8,19.9,29.60,SSE,148,0.0,11.0,10,0.00,,,0.00,1005,Wunderground v.1.15,2013-06-20 18:39:00,
2013-06-20 12:44:00,82.0,22.3,29.58,SSE,147,0.0,12.0,11,0.00,,,0.00,1005,Wunderground v.1.15,2013-06-20 18:44:00,
2013-06-20 12:49:00,82.4,17.9,29.58,SSE,161,10.0,16.0,9,0.00,,,0.00,1007,Wunderground v.1.15,2013-06-20 18:49:00,
2013-06-20 12:54:00,82.6,18.0,29.58,SSE,161,11.0,12.0,9,0.00,,,0.00,1014,Wunderground v.1.15,2013-06-20 18:54:00,
2013-06-20 12:59:00,82.8,22.9,29.58,SSE,161,0.0,14.0,11,0.00,,,0.00,1011,Wunderground v.1.15,2013-06-20 18:59:00,
2013-06-20 13:04:00,83.4,21.1,29.58,South,172,7.0,12.0,10,0.00,,,0.00,1014,Wunderground v.1.15,2013-06-20 19:04:00,
2013-06-20 13:09:00,83.4,18.6,29.58,South,175,1.0,12.0,9,0.00,,,0.00,1016,Wunderground v.1.15,2013-06-20 19:09:00,
2013-06-20 13:14:00,83.6,21.2,29.58,South,185,4.0,10.0,10,0.00,,,0.00,1011,Wunderground v.1.15,2013-06-20 19:14:00,
2013-06-20 13:19:00,83.6,16.0,29.58,SSW,208,5.0,15.0,8,0.00,,,0.00,1014,Wunderground v.1.15,2013-06-20 19:19:00,
2013-06-20 13:24:00,83.2,18.5,29.58,SSW,208,6.0,14.0,9,0.00,,,0.00,1016,Wunderground v.1.15,2013-06-20 19:24:00,
2013-06-20 13:29:00,83.4,21.1,29.57,SSW,208,6.0,14.0,10,0.00,,,0.00,1011,Wunderground v.1.15,2013-06-20 19:29:00,
2013-06-20 13:34:00,83.6,21.2,29.57,SW,227,7.0,16.0,10,0.00,,,0.00,1011,Wunderground v.1.15,2013-06-20 19:34:00,
2013-06-20 13:39:00,84.0,25.9,29.57,SW,225,11.0,16.0,12,0.00,,,0.00,995,Wunderground v.1.15,2013-06-20 19:39:00,
2013-06-20 13:44:00,84.0,19.1,29.57,SSW,195,5.0,14.0,9,0.00,,,0.00,1009,Wunderground v.1.15,2013-06-20 19:44:00,
2013-06-20 13:49:00,84.0,16.3,29.57,WSW,250,12.0,16.0,8,0.00,,,0.00,1014,Wunderground v.1.15,2013-06-20 19:49:00,
2013-06-20 13:54:00,84.0,16.3,29.57,West,271,12.0,16.0,8,0.00,,,0.00,1009,Wunderground v.1.15,2013-06-20 19:54:00,
2013-06-20 13:59:00,84.1,16.4,29.56,WSW,241,4.0,16.0,8,0.00,,,0.00,1009,Wunderground v.1.15,2013-06-20 19:59:00,
2013-06-20 14:04:00,84.1,19.1,29.56,WSW,241,0.0,10.0,9,0.00,,,0.00,1007,Wunderground v.1.15,2013-06-20 20:04:00,
2013-06-20 14:09:00,84.3,19.3,29.56,WSW,254,0.0,15.0,9,0.00,,,0.00,1000,Wunderground v.1.15,2013-06-20 20:09:00,
2013-06-20 14:14:00,84.5,16.7,29.56,SW,235,8.0,12.0,8,0.00,,,0.00,1002,Wunderground v.1.15,2013-06-20 20:14:00,
2013-06-20 14:19:00,84.9,13.9,29.56,West,260,9.0,16.0,7,0.00,,,0.00,998,Wunderground v.1.15,2013-06-20 20:19:00,
2013-06-20 14:24:00,85.1,17.1,29.56,South,186,10.0,28.0,8,0.00,,,0.00,984,Wunderground v.1.15,2013-06-20 20:24:00,
2013-06-20 14:29:00,85.5,22.7,29.56,SSE,159,21.0,28.0,10,0.00,,,0.00,986,Wunderground v.1.15,2013-06-20 20:29:00,
2013-06-20 14:34:00,85.9,20.5,29.56,SSE,159,13.0,22.0,9,0.00,,,0.00,983,Wunderground v.1.15,2013-06-20 20:34:00,
2013-06-20 14:39:00,86.1,17.9,29.56,SSE,160,7.0,22.0,8,0.00,,,0.00,979,Wunderground v.1.15,2013-06-20 20:39:00,
2013-06-20 14:44:00,85.9,17.7,29.56,SW,215,7.0,21.0,8,0.00,,,0.00,979,Wunderground v.1.15,2013-06-20 20:44:00,
2013-06-20 14:49:00,85.7,17.6,29.56,WSW,240,20.0,21.0,8,0.00,,,0.00,977,Wunderground v.1.15,2013-06-20 20:49:00,
2013-06-20 14:54:00,85.7,17.6,29.56,SW,230,14.0,24.0,8,0.00,,,0.00,939,Wunderground v.1.15,2013-06-20 20:54:00,
2013-06-20 14:59:00,85.5,17.4,29.55,West,265,20.0,24.0,8,0.00,,,0.00,944,Wunderground v.1.15,2013-06-20 20:59:00,
2013-06-20 15:04:00,85.5,17.4,29.55,WSW,253,21.0,23.0,8,0.00,,,0.00,907,Wunderground v.1.15,2013-06-20 21:04:00,
2013-06-20 15:10:00,85.3,17.3,29.55,West,273,13.0,18.0,8,0.00,,,0.00,882,Wunderground v.1.15,2013-06-20 21:10:00,
2013-06-20 15:15:00,85.3,14.2,29.56,West,275,20.0,20.0,7,0.00,,,0.00,932,Wunderground v.1.15,2013-06-20 21:15:00,
2013-06-20 15:20:00,85.3,20.0,29.56,SW,222,15.0,19.0,9,0.00,,,0.00,882,Wunderground v.1.15,2013-06-20 21:20:00,
2013-06-20 15:25:00,85.5,14.4,29.56,SW,221,11.0,24.0,7,0.00,,,0.00,814,Wunderground v.1.15,2013-06-20 21:25:00,
2013-06-20 15:30:00,85.3,14.2,29.55,SW,234,17.0,17.0,7,0.00,,,0.00,930,Wunderground v.1.15,2013-06-20 21:30:00,
2013-06-20 15:35:00,85.5,14.4,29.55,SW,215,18.0,22.0,7,0.00,,,0.00,875,Wunderground v.1.15,2013-06-20 21:35:00,
2013-06-20 15:40:00,85.7,20.3,29.55,SW,229,13.0,13.0,9,0.00,,,0.00,865,Wunderground v.1.15,2013-06-20 21:40:00,
2013-06-20 15:45:00,85.7,17.6,29.55,West,263,21.0,21.0,8,0.00,,,0.00,823,Wunderground v.1.15,2013-06-20 21:45:00,
2013-06-20 15:50:00,85.7,17.6,29.55,WNW,286,18.0,18.0,8,0.00,,,0.00,849,Wunderground v.1.15,2013-06-20 21:50:00,
2013-06-20 15:55:00,85.7,17.6,29.55,WSW,243,15.0,25.0,8,0.00,,,0.00,754,Wunderground v.1.15,2013-06-20 21:55:00,
2013-06-20 16:00:00,85.3,20.0,29.55,West,280,11.0,16.0,9,0.00,,,0.00,693,Wunderground v.1.15,2013-06-20 22:00:00,
2013-06-20 16:05:00,84.7,16.8,29.55,West,280,19.0,22.0,8,0.00,,,0.00,691,Wunderground v.1.15,2013-06-20 22:05:00,
2013-06-20 16:10:00,84.5,19.4,29.55,West,268,16.0,21.0,9,0.00,,,0.00,765,Wunderground v.1.15,2013-06-20 22:10:00,
2013-06-20 16:15:00,84.3,19.3,29.54,WSW,248,13.0,27.0,9,0.00,,,0.00,779,Wunderground v.1.15,2013-06-20 22:15:00,
2013-06-20 16:20:00,84.3,19.3,29.54,West,275,21.0,21.0,9,0.00,,,0.00,788,Wunderground v.1.15,2013-06-20 22:20:00,
2013-06-20 16:25:00,84.5,19.4,29.54,West,271,19.0,24.0,9,0.00,,,0.00,675,Wunderground v.1.15,2013-06-20 22:25:00,
2013-06-20 16:30:00,84.5,16.7,29.54,WNW,291,19.0,22.0,8,0.00,,,0.00,656,Wunderground v.1.15,2013-06-20 22:30:00,
2013-06-20 16:36:00,84.5,16.7,29.54,WNW,291,6.0,22.0,8,0.00,,,0.00,724,Wunderground v.1.15,2013-06-20 22:36:00,
2013-06-20 16:41:00,84.5,21.9,29.54,WNW,286,20.0,20.0,10,0.00,,,0.00,624,Wunderground v.1.15,2013-06-20 22:41:00,
2013-06-20 16:47:00,84.5,16.7,29.54,WNW,286,16.0,24.0,8,0.00,,,0.00,599,Wunderground v.1.15,2013-06-20 22:47:00,
2013-06-20 16:52:00,84.3,16.6,29.54,WNW,288,11.0,21.0,8,0.00,,,0.00,580,Wunderground v.1.15,2013-06-20 22:52:00,
2013-06-20 16:57:00,84.0,16.3,29.54,SW,216,4.0,21.0,8,0.00,,,0.00,624,Wunderground v.1.15,2013-06-20 22:57:00,
2013-06-20 17:02:00,83.8,18.9,29.54,SW,228,13.0,24.0,9,0.00,,,0.00,652,Wunderground v.1.15,2013-06-20 23:02:00,
2013-06-20 17:07:00,83.8,18.9,29.54,SW,227,11.0,24.0,9,0.00,,,0.00,501,Wunderground v.1.15,2013-06-20 23:07:00,
2013-06-20 17:13:00,83.4,18.6,29.54,WSW,252,21.0,22.0,9,0.00,,,0.00,220,Wunderground v.1.15,2013-06-20 23:13:00,
2013-06-20 17:18:00,82.4,20.3,29.54,West,273,16.0,23.0,10,0.00,,,0.00,457,Wunderground v.1.15,2013-06-20 23:18:00,
2013-06-20 17:23:00,81.8,19.9,29.54,West,277,20.0,21.0,10,0.00,,,0.00,483,Wunderground v.1.15,2013-06-20 23:23:00,
2013-06-20 17:28:00,81.2,17.0,29.54,West,270,12.0,22.0,9,0.00,,,0.00,104,Wunderground v.1.15,2013-06-20 23:28:00,
2013-06-20 17:33:00,80.5,18.9,29.54,West,275,11.0,19.0,10,0.00,,,0.00,84,Wunderground v.1.15,2013-06-20 23:33:00,
2013-06-20 17:38:00,79.9,18.4,29.54,West,281,10.0,19.0,10,0.00,,,0.00,79,Wunderground v.1.15,2013-06-20 23:38:00,
2013-06-20 17:43:00,79.2,22.2,29.54,West,267,13.0,16.0,12,0.00,,,0.00,70,Wunderground v.1.15,2013-06-20 23:43:00,
2013-06-20 17:48:00,78.3,19.4,29.54,WSW,258,14.0,16.0,11,0.00,,,0.00,56,Wunderground v.1.15,2013-06-20 23:48:00,
2013-06-20 17:53:00,77.6,22.8,29.54,WSW,257,10.0,14.0,13,0.00,,,0.00,42,Wunderground v.1.15,2013-06-20 23:53:00,
2013-06-20 17:58:00,76.8,20.3,29.54,WSW,257,9.0,14.0,12,0.00,,,0.00,32,Wunderground v.1.15,2013-06-20 23:58:00,
2013-06-20 18:03:00,76.1,21.6,29.54,WSW,257,9.0,11.0,13,0.00,,,0.00,28,Wunderground v.1.15,2013-06-21 00:03:00,
2013-06-20 18:08:00,75.6,21.2,29.54,WSW,257,7.0,11.0,13,0.00,,,0.00,25,Wunderground v.1.15,2013-06-21 00:08:00,
2013-06-20 18:14:00,75.1,22.6,29.54,WSW,257,12.0,12.0,14,0.00,,,0.00,26,Wunderground v.1.15,2013-06-21 00:14:00,
2013-06-20 18:19:00,74.4,22.1,29.54,WSW,257,9.0,13.0,14,0.00,,,0.00,21,Wunderground v.1.15,2013-06-21 00:19:00,
2013-06-20 18:24:00,73.9,21.7,29.54,WSW,257,7.0,10.0,14,0.00,,,0.00,19,Wunderground v.1.15,2013-06-21 00:24:00,
2013-06-20 18:29:00,73.3,21.2,29.54,WSW,257,9.0,10.0,14,0.00,,,0.00,19,Wunderground v.1.15,2013-06-21 00:29:00,
2013-06-20 18:34:00,72.8,20.8,29.54,WSW,257,8.0,11.0,14,0.00,,,0.00,23,Wunderground v.1.15,2013-06-21 00:34:00,
2013-06-20 18:39:00,72.5,22.2,29.54,WSW,257,8.0,11.0,15,0.00,,,0.00,21,Wunderground v.1.15,2013-06-21 00:39:00,
2013-06-20 18:44:00,72.0,23.3,29.54,WSW,257,6.0,9.0,16,0.00,,,0.00,18,Wunderground v.1.15,2013-06-21 00:44:00,
2013-06-20 18:49:00,71.6,23.0,29.54,WSW,257,6.0,9.0,16,0.00,,,0.00,16,Wunderground v.1.15,2013-06-21 00:49:00,
2013-06-20 18:54:00,71.1,22.6,29.54,WSW,257,6.0,10.0,16,0.00,,,0.00,16,Wunderground v.1.15,2013-06-21 00:54:00,
2013-06-20 18:59:00,70.8,22.3,29.54,WSW,257,6.0,10.0,16,0.00,,,0.00,16,Wunderground v.1.15,2013-06-21 00:59:00,
2013-06-20 19:04:00,70.4,22.0,29.54,WSW,257,8.0,8.0,16,0.00,,,0.00,16,Wunderground v.1.15,2013-06-21 01:04:00,
2013-06-20 19:09:00,70.1,21.8,29.54,WSW,257,8.0,9.0,16,0.00,,,0.00,16,Wunderground v.1.15,2013-06-21 01:09:00,
2013-06-20 19:14:00,69.8,21.5,29.54,WSW,257,6.0,10.0,16,0.00,,,0.00,19,Wunderground v.1.15,2013-06-21 01:14:00,
2013-06-20 19:19:00,69.4,21.2,29.54,WSW,257,7.0,10.0,16,0.00,,,0.00,19,Wunderground v.1.15,2013-06-21 01:19:00,
2013-06-20 19:24:00,69.1,22.4,29.54,WSW,257,5.0,8.0,17,0.00,,,0.00,19,Wunderground v.1.15,2013-06-21 01:24:00,
2013-06-20 19:29:00,68.9,23.6,29.55,WSW,257,4.0,8.0,18,0.00,,,0.00,21,Wunderground v.1.15,2013-06-21 01:29:00,
2013-06-20 19:34:00,68.6,22.0,29.55,WSW,257,8.0,8.0,17,0.00,,,0.00,19,Wunderground v.1.15,2013-06-21 01:34:00,
2013-06-20 19:39:00,68.3,21.8,29.55,WSW,257,7.0,9.0,17,0.00,,,0.00,19,Wunderground v.1.15,2013-06-21 01:39:00,
2013-06-20 19:44:00,68.1,21.6,29.55,WSW,257,8.0,10.0,17,0.00,,,0.00,16,Wunderground v.1.15,2013-06-21 01:44:00,
2013-06-20 19:49:00,67.8,19.9,29.55,WSW,257,7.0,10.0,16,0.00,,,0.00,12,Wunderground v.1.15,2013-06-21 01:49:00,
2013-06-20 19:54:00,67.4,21.0,29.55,WSW,257,9.0,11.0,17,0.00,,,0.00,7,Wunderground v.1.15,2013-06-21 01:54:00,
2013-06-20 19:59:00,67.3,20.9,29.55,WSW,257,8.0,12.0,17,0.00,,,0.00,5,Wunderground v.1.15,2013-06-21 01:59:00,
2013-06-20 20:04:00,67.1,22.1,29.55,WSW,257,9.0,12.0,18,0.00,,,0.00,5,Wunderground v.1.15,2013-06-21 02:04:00,
2013-06-20 20:09:00,66.8,21.9,29.55,WSW,257,9.0,12.0,18,0.00,,,0.00,5,Wunderground v.1.15,2013-06-21 02:09:00,
2013-06-20 20:14:00,66.4,21.6,29.55,WSW,257,9.0,13.0,18,0.00,,,0.00,0,Wunderground v.1.15,2013-06-21 02:14:00,
2013-06-20 20:19:00,66.1,21.3,29.55,WSW,257,10.0,13.0,18,0.00,,,0.00,0,Wunderground v.1.15,2013-06-21 02:19:00,
2013-06-20 20:24:00,66.0,21.2,29.55,WSW,257,12.0,13.0,18,0.00,,,0.00,0,Wunderground v.1.15,2013-06-21 02:24:00,
2013-06-20 20:29:00,65.8,16.8,29.55,WSW,257,8.0,13.0,15,0.00,,,0.00,0,Wunderground v.1.15,2013-06-21 02:29:00,
2013-06-20 20:36:00,66.0,17.0,29.55,WSW,257,10.0,12.0,15,0.00,,,0.00,0,Wunderground v.1.15,2013-06-21 02:36:00,
2013-06-20 20:41:00,66.1,15.5,29.55,WSW,255,10.0,12.0,14,0.00,,,0.00,0,Wunderground v.1.15,2013-06-21 02:41:00,
2013-06-20 20:46:00,66.4,15.7,29.55,WSW,254,7.0,12.0,14,0.00,,,0.00,0,Wunderground v.1.15,2013-06-21 02:46:00,
2013-06-20 20:51:00,66.8,16.0,29.55,WSW,254,6.0,10.0,14,0.00,,,0.00,0,Wunderground v.1.15,2013-06-21 02:51:00,
2013-06-20 20:57:00,66.8,16.0,29.55,WSW,254,11.0,12.0,14,0.00,,,0.00,0,Wunderground v.1.15,2013-06-21 02:57:00,
2013-06-20 21:02:00,66.8,16.0,29.55,WSW,247,13.0,13.0,14,0.00,,,0.00,0,Wunderground v.1.15,2013-06-21 03:02:00,
2013-06-20 21:07:00,66.6,15.9,29.55,WSW,244,10.0,13.0,14,0.00,,,0.00,0,Wunderground v.1.15,2013-06-21 03:07:00,
2013-06-20 21:12:00,66.6,15.9,29.55,WSW,244,10.0,12.0,14,0.00,,,0.00,0,Wunderground v.1.15,2013-06-21 03:12:00,
2013-06-20 21:17:00,66.6,15.9,29.56,WSW,244,8.0,12.0,14,0.00,,,0.00,0,Wunderground v.1.15,2013-06-21 03:17:00,
2013-06-20 21:23:00,66.4,14.0,29.56,WSW,242,9.0,12.0,13,0.00,,,0.00,0,Wunderground v.1.15,2013-06-21 03:23:00,
2013-06-20 21:28:00,66.4,15.7,29.56,WSW,242,8.0,12.0,14,0.00,,,0.00,0,Wunderground v.1.15,2013-06-21 03:28:00,
2013-06-20 21:34:00,66.3,15.6,29.57,WSW,242,7.0,10.0,14,0.00,,,0.00,0,Wunderground v.1.15,2013-06-21 03:34:00,
2013-06-20 21:39:00,66.1,15.5,29.57,WSW,242,10.0,11.0,14,0.00,,,0.00,0,Wunderground v.1.15,2013-06-21 03:39:00,
2013-06-20 21:44:00,65.8,16.8,29.57,WSW,242,8.0,11.0,15,0.00,,,0.00,0,Wunderground v.1.15,2013-06-21 03:44:00,
2013-06-20 21:49:00,65.5,24.5,29.57,WSW,242,8.0,11.0,21,0.00,,,0.00,0,Wunderground v.1.15,2013-06-21 03:49:00,
2013-06-20 21:54:00,64.8,23.9,29.57,WSW,242,4.0,10.0,21,0.00,,,0.00,0,Wunderground v.1.15,2013-06-21 03:54:00,
2013-06-20 21:59:00,64.2,25.6,29.58,WSW,242,7.0,10.0,23,0.00,,,0.00,0,Wunderground v.1.15,2013-06-21 03:59:00,
2013-06-20 22:01:00,64.0,25.4,29.58,WSW,242,5.0,7.0,23,0.00,,,0.00,0,Wunderground v.1.15,2013-06-21 04:01:00,
2013-06-20 22:06:00,63.2,22.6,29.58,WSW,242,6.0,7.0,21,0.00,,,0.00,0,Wunderground v.1.15,2013-06-21 04:06:00,
2013-06-20 22:11:00,62.4,21.9,29.58,WSW,242,7.0,8.0,21,0.00,,,0.00,0,Wunderground v.1.15,2013-06-21 04:11:00,
2013-06-20 22:16:00,62.0,22.7,29.58,WSW,242,6.0,8.0,22,0.00,,,0.00,0,Wunderground v.1.15,2013-06-21 04:16:00,
2013-06-20 22:21:00,61.2,20.9,29.58,WSW,242,0.0,7.0,21,0.00,,,0.00,0,Wunderground v.1.15,2013-06-21 04:21:00,
2013-06-20 22:26:00,60.5,20.3,29.58,WSW,242,0.0,7.0,21,0.00,,,0.00,0,Wunderground v.1.15,2013-06-21 04:26:00,
2013-06-20 22:31:00,59.9,22.0,29.59,WSW,242,9.0,9.0,23,0.00,,,0.00,0,Wunderground v.1.15,2013-06-21 04:31:00,
2013-06-20 22:36:00,59.5,21.6,29.59,WSW,250,9.0,10.0,23,0.00,,,0.00,0,Wunderground v.1.15,2013-06-21 04:36:00,
2013-06-20 22:41:00,58.9,21.1,29.59,WSW,250,7.0,9.0,23,0.00,,,0.00,0,Wunderground v.1.15,2013-06-21 04:41:00,
2013-06-20 22:46:00,58.4,21.7,29.59,WSW,250,8.0,9.0,24,0.00,,,0.00,0,Wunderground v.1.15,2013-06-21 04:46:00,
2013-06-20 22:53:00,57.6,20.0,29.59,WSW,250,8.0,9.0,23,0.00,,,0.00,0,Wunderground v.1.15,2013-06-21 04:53:00,
2013-06-20 22:58:00,57.3,22.7,29.59,WSW,255,9.0,11.0,26,0.00,,,0.00,0,Wunderground v.1.15,2013-06-21 04:58:00,
2013-06-20 23:03:00,56.7,23.0,29.59,West,259,11.0,11.0,27,0.00,,,0.00,0,Wunderground v.1.15,2013-06-21 05:03:00,
2013-06-20 23:09:00,56.5,21.1,29.59,West,259,10.0,11.0,25,0.00,,,0.00,0,Wunderground v.1.15,2013-06-21 05:09:00,
2013-06-20 23:14:00,56.0,18.7,29.59,West,259,6.0,10.0,23,0.00,,,0.00,0,Wunderground v.1.15,2013-06-21 05:14:00,
2013-06-20 23:19:00,55.9,18.6,29.59,West,259,6.0,10.0,23,0.00,,,0.00,0,Wunderground v.1.15,2013-06-21 05:19:00,
2013-06-20 23:24:00,55.7,19.4,29.59,West,259,0.0,7.0,24,0.00,,,0.00,0,Wunderground v.1.15,2013-06-21 05:24:00,
2013-06-20 23:29:00,55.4,25.2,29.59,West,259,5.0,7.0,31,0.00,,,0.00,0,Wunderground v.1.15,2013-06-21 05:29:00,
2013-06-20 23:34:00,55.0,23.3,29.59,West,259,6.0,6.0,29,0.00,,,0.00,0,Wunderground v.1.15,2013-06-21 05:34:00,
2013-06-20 23:39:00,54.7,24.6,29.59,West,259,5.0,7.0,31,0.00,,,0.00,0,Wunderground v.1.15,2013-06-21 05:39:00,
2013-06-20 23:44:00,54.4,25.9,29.59,West,259,5.0,8.0,33,0.00,,,0.00,0,Wunderground v.1.15,2013-06-21 05:44:00,
2013-06-20 23:49:00,53.9,24.7,29.59,West,259,6.0,8.0,32,0.00,,,0.00,0,Wunderground v.1.15,2013-06-21 05:49:00,
2013-06-20 23:54:00,53.5,22.0,29.59,West,259,5.0,9.0,29,0.00,,,0.00,0,Wunderground v.1.15,2013-06-21 05:54:00,
2013-06-20 23:59:00,53.2,24.8,29.59,West,259,0.0,9.0,33,0.00,,,0.00,0,Wunderground v.1.15,2013-06-21 05:59:00,